sensor_id;sensor_type;location;lat;lon;timestamp;pressure;altitude;pressure_sealevel;temperature;humidity
76024;BME280;64719;52.124;6.226;2023-08-17T00:01:28;102170.56;;;17.78;100.00
76024;BME280;64719;52.124;6.226;2023-08-17T00:03:54;102170.22;;;17.75;100.00
76024;BME280;64719;52.124;6.226;2023-08-17T00:06:21;102179.28;;;17.75;100.00
76024;BME280;64719;52.124;6.226;2023-08-17T00:08:48;102170.34;;;17.68;100.00
76024;BME280;64719;52.124;6.226;2023-08-17T00:11:14;102178.34;;;17.70;100.00
76024;BME280;64719;52.124;6.226;2023-08-17T00:13:41;102170.69;;;17.72;100.00
76024;BME280;64719;52.124;6.226;2023-08-17T00:16:09;102177.78;;;17.68;100.00
76024;BME280;64719;52.124;6.226;2023-08-17T00:18:35;102172.41;;;17.61;100.00
76024;BME280;64719;52.124;6.226;2023-08-17T00:21:02;102164.19;;;17.61;100.00
76024;BME280;64719;52.124;6.226;2023-08-17T00:23:29;102164.78;;;17.63;100.00
76024;BME280;64719;52.124;6.226;2023-08-17T00:25:55;102161.19;;;17.63;100.00
76024;BME280;64719;52.124;6.226;2023-08-17T00:28:22;102166.56;;;17.58;100.00
76024;BME280;64719;52.124;6.226;2023-08-17T00:30:50;102167.56;;;17.52;100.00
76024;BME280;64719;52.124;6.226;2023-08-17T00:33:18;102171.88;;;17.48;100.00
76024;BME280;64719;52.124;6.226;2023-08-17T00:35:45;102172.56;;;17.55;100.00
76024;BME280;64719;52.124;6.226;2023-08-17T00:38:11;102173.78;;;17.47;100.00
76024;BME280;64719;52.124;6.226;2023-08-17T00:40:38;102177.13;;;17.49;100.00
76024;BME280;64719;52.124;6.226;2023-08-17T00:43:05;102176.19;;;17.44;100.00
76024;BME280;64719;52.124;6.226;2023-08-17T00:45:31;102175.56;;;17.42;100.00
76024;BME280;64719;52.124;6.226;2023-08-17T00:47:58;102177.41;;;17.36;100.00
76024;BME280;64719;52.124;6.226;2023-08-17T00:50:27;102180.94;;;17.37;100.00
76024;BME280;64719;52.124;6.226;2023-08-17T00:52:55;102175.38;;;17.32;100.00
76024;BME280;64719;52.124;6.226;2023-08-17T00:55:22;102169.28;;;17.30;100.00
76024;BME280;64719;52.124;6.226;2023-08-17T00:57:50;102170.81;;;17.37;100.00
76024;BME280;64719;52.124;6.226;2023-08-17T01:00:18;102168.31;;;17.36;100.00
76024;BME280;64719;52.124;6.226;2023-08-17T01:02:45;102172.63;;;17.32;100.00
76024;BME280;64719;52.124;6.226;2023-08-17T01:05:12;102169.91;;;17.32;100.00
76024;BME280;64719;52.124;6.226;2023-08-17T01:07:40;102175.63;;;17.30;100.00
76024;BME280;64719;52.124;6.226;2023-08-17T01:10:08;102173.94;;;17.29;100.00
76024;BME280;64719;52.124;6.226;2023-08-17T01:12:38;102168.69;;;17.28;100.00
76024;BME280;64719;52.124;6.226;2023-08-17T01:15:11;102170.25;;;17.24;100.00
76024;BME280;64719;52.124;6.226;2023-08-17T01:17:43;102176.72;;;17.18;100.00
76024;BME280;64719;52.124;6.226;2023-08-17T01:20:14;102170.63;;;17.16;100.00
76024;BME280;64719;52.124;6.226;2023-08-17T01:22:45;102174.84;;;17.07;100.00
76024;BME280;64719;52.124;6.226;2023-08-17T01:25:16;102174.84;;;17.07;100.00
76024;BME280;64719;52.124;6.226;2023-08-17T01:27:45;102174.75;;;17.02;100.00
76024;BME280;64719;52.124;6.226;2023-08-17T01:30:14;102168.66;;;17.00;100.00
76024;BME280;64719;52.124;6.226;2023-08-17T01:32:45;102165.91;;;17.00;100.00
76024;BME280;64719;52.124;6.226;2023-08-17T01:35:21;102167.81;;;16.99;100.00
76024;BME280;64719;52.124;6.226;2023-08-17T01:37:50;102163.41;;;16.98;100.00
76024;BME280;64719;52.124;6.226;2023-08-17T01:40:21;102168.41;;;17.01;100.00
76024;BME280;64719;52.124;6.226;2023-08-17T01:42:50;102169.75;;;16.99;100.00
76024;BME280;64719;52.124;6.226;2023-08-17T01:45:17;102172.00;;;17.02;100.00
76024;BME280;64719;52.124;6.226;2023-08-17T01:47:43;102174.88;;;16.95;100.00
76024;BME280;64719;52.124;6.226;2023-08-17T01:50:10;102160.44;;;17.00;100.00
76024;BME280;64719;52.124;6.226;2023-08-17T01:52:37;102155.31;;;16.92;100.00
76024;BME280;64719;52.124;6.226;2023-08-17T01:55:04;102160.56;;;16.93;100.00
76024;BME280;64719;52.124;6.226;2023-08-17T01:57:32;102157.94;;;16.98;100.00
76024;BME280;64719;52.124;6.226;2023-08-17T02:00:00;102164.84;;;17.01;100.00
76024;BME280;64719;52.124;6.226;2023-08-17T02:02:26;102155.69;;;16.95;100.00
76024;BME280;64719;52.124;6.226;2023-08-17T02:04:53;102155.91;;;16.94;100.00
76024;BME280;64719;52.124;6.226;2023-08-17T02:07:20;102150.78;;;16.97;100.00
76024;BME280;64719;52.124;6.226;2023-08-17T02:09:46;102149.59;;;16.93;100.00
76024;BME280;64719;52.124;6.226;2023-08-17T02:12:13;102162.00;;;16.96;100.00
76024;BME280;64719;52.124;6.226;2023-08-17T02:14:41;102157.81;;;16.93;100.00
76024;BME280;64719;52.124;6.226;2023-08-17T02:17:07;102162.72;;;16.91;100.00
76024;BME280;64719;52.124;6.226;2023-08-17T02:19:34;102159.38;;;16.89;100.00
76024;BME280;64719;52.124;6.226;2023-08-17T02:22:02;102140.31;;;16.83;100.00
76024;BME280;64719;52.124;6.226;2023-08-17T02:24:28;102143.41;;;16.86;100.00
76024;BME280;64719;52.124;6.226;2023-08-17T02:26:55;102134.94;;;16.88;100.00
76024;BME280;64719;52.124;6.226;2023-08-17T02:29:21;102147.81;;;16.87;100.00
76024;BME280;64719;52.124;6.226;2023-08-17T02:31:49;102145.06;;;16.87;100.00
76024;BME280;64719;52.124;6.226;2023-08-17T02:34:16;102142.00;;;16.84;100.00
76024;BME280;64719;52.124;6.226;2023-08-17T02:36:42;102142.00;;;16.84;100.00
76024;BME280;64719;52.124;6.226;2023-08-17T02:39:09;102143.66;;;16.85;100.00
76024;BME280;64719;52.124;6.226;2023-08-17T02:41:36;102155.56;;;16.90;100.00
76024;BME280;64719;52.124;6.226;2023-08-17T02:44:03;102157.38;;;16.85;100.00
76024;BME280;64719;52.124;6.226;2023-08-17T02:46:29;102159.50;;;16.83;100.00
76024;BME280;64719;52.124;6.226;2023-08-17T02:48:57;102153.53;;;16.86;100.00
76024;BME280;64719;52.124;6.226;2023-08-17T02:51:24;102142.81;;;16.84;100.00
76024;BME280;64719;52.124;6.226;2023-08-17T02:53:51;102143.06;;;16.83;100.00
76024;BME280;64719;52.124;6.226;2023-08-17T02:56:17;102142.00;;;16.84;100.00
76024;BME280;64719;52.124;6.226;2023-08-17T02:58:44;102140.31;;;16.83;100.00
76024;BME280;64719;52.124;6.226;2023-08-17T03:01:10;102142.81;;;16.84;100.00
76024;BME280;64719;52.124;6.226;2023-08-17T03:03:37;102141.88;;;16.79;100.00
76024;BME280;64719;52.124;6.226;2023-08-17T03:06:05;102147.34;;;16.79;100.00
76024;BME280;64719;52.124;6.226;2023-08-17T03:08:31;102142.13;;;16.77;100.00
76024;BME280;64719;52.124;6.226;2023-08-17T03:10:58;102143.53;;;16.80;100.00
76024;BME280;64719;52.124;6.226;2023-08-17T03:13:25;102140.94;;;16.73;100.00
76024;BME280;64719;52.124;6.226;2023-08-17T03:15:51;102137.59;;;16.71;100.00
76024;BME280;64719;52.124;6.226;2023-08-17T03:18:18;102144.75;;;16.72;100.00
76024;BME280;64719;52.124;6.226;2023-08-17T03:20:44;102140.69;;;16.75;100.00
76024;BME280;64719;52.124;6.226;2023-08-17T03:23:12;102146.66;;;16.72;100.00
76024;BME280;64719;52.124;6.226;2023-08-17T03:25:39;102136.38;;;16.67;100.00
76024;BME280;64719;52.124;6.226;2023-08-17T03:28:06;102142.22;;;16.71;100.00
76024;BME280;64719;52.124;6.226;2023-08-17T03:30:32;102139.72;;;16.69;100.00
76024;BME280;64719;52.124;6.226;2023-08-17T03:32:59;102135.34;;;16.68;100.00
76024;BME280;64719;52.124;6.226;2023-08-17T03:35:25;102134.13;;;16.64;100.00
76024;BME280;64719;52.124;6.226;2023-08-17T03:37:52;102135.81;;;16.65;100.00
76024;BME280;64719;52.124;6.226;2023-08-17T03:40:20;102124.72;;;16.60;100.00
76024;BME280;64719;52.124;6.226;2023-08-17T03:42:46;102127.22;;;16.62;100.00
76024;BME280;64719;52.124;6.226;2023-08-17T03:45:13;102130.81;;;16.62;100.00
76024;BME280;64719;52.124;6.226;2023-08-17T03:47:40;102129.38;;;16.60;100.00
76024;BME280;64719;52.124;6.226;2023-08-17T03:50:08;102123.31;;;16.58;100.00
76024;BME280;64719;52.124;6.226;2023-08-17T03:52:35;102121.06;;;16.55;100.00
76024;BME280;64719;52.124;6.226;2023-08-17T03:55:01;102124.84;;;16.54;100.00
76024;BME280;64719;52.124;6.226;2023-08-17T03:57:29;102119.84;;;16.51;100.00
76024;BME280;64719;52.124;6.226;2023-08-17T03:59:56;102122.00;;;16.49;100.00
76024;BME280;64719;52.124;6.226;2023-08-17T04:02:23;102117.00;;;16.46;100.00
76024;BME280;64719;52.124;6.226;2023-08-17T04:04:49;102118.44;;;16.48;100.00
76024;BME280;64719;52.124;6.226;2023-08-17T04:07:20;102114.72;;;16.42;100.00
76024;BME280;64719;52.124;6.226;2023-08-17T04:09:47;102114.28;;;16.46;100.00
76024;BME280;64719;52.124;6.226;2023-08-17T04:12:14;102114.50;;;16.44;100.00
76024;BME280;64719;52.124;6.226;2023-08-17T04:14:42;102115.09;;;16.46;100.00
76024;BME280;64719;52.124;6.226;2023-08-17T04:17:08;102119.16;;;16.43;100.00
76024;BME280;64719;52.124;6.226;2023-08-17T04:19:35;102114.97;;;16.41;100.00
76024;BME280;64719;52.124;6.226;2023-08-17T04:22:01;102117.00;;;16.46;100.00
76024;BME280;64719;52.124;6.226;2023-08-17T04:24:28;102115.94;;;16.47;100.00
76024;BME280;64719;52.124;6.226;2023-08-17T04:26:55;102111.78;;;16.44;100.00
76024;BME280;64719;52.124;6.226;2023-08-17T04:29:21;102111.53;;;16.46;100.00
76024;BME280;64719;52.124;6.226;2023-08-17T04:31:49;102113.19;;;16.47;100.00
76024;BME280;64719;52.124;6.226;2023-08-17T04:34:16;102119.16;;;16.43;100.00
76024;BME280;64719;52.124;6.226;2023-08-17T04:36:42;102114.28;;;16.46;100.00
76024;BME280;64719;52.124;6.226;2023-08-17T04:39:09;102120.00;;;16.44;100.00
76024;BME280;64719;52.124;6.226;2023-08-17T04:41:36;102123.31;;;16.46;100.00
76024;BME280;64719;52.124;6.226;2023-08-17T04:44:03;102119.50;;;16.47;100.00
76024;BME280;64719;52.124;6.226;2023-08-17T04:46:29;102116.28;;;16.50;100.00
76024;BME280;64719;52.124;6.226;2023-08-17T04:48:57;102114.97;;;16.53;100.00
76024;BME280;64719;52.124;6.226;2023-08-17T04:51:24;102111.63;;;16.51;100.00
76024;BME280;64719;52.124;6.226;2023-08-17T04:53:50;102114.13;;;16.52;100.00
76024;BME280;64719;52.124;6.226;2023-08-17T04:56:17;102114.13;;;16.52;100.00
76024;BME280;64719;52.124;6.226;2023-08-17T04:58:43;102118.06;;;16.56;100.00
76024;BME280;64719;52.124;6.226;2023-08-17T05:01:10;102116.88;;;16.52;100.00
76024;BME280;64719;52.124;6.226;2023-08-17T05:03:36;102115.34;;;16.56;100.00
76024;BME280;64719;52.124;6.226;2023-08-17T05:06:04;102114.84;;;16.59;100.00
76024;BME280;64719;52.124;6.226;2023-08-17T05:08:31;102122.22;;;16.59;100.00
76024;BME280;64719;52.124;6.226;2023-08-17T05:10:58;102123.31;;;16.58;100.00
76024;BME280;64719;52.124;6.226;2023-08-17T05:13:24;102110.66;;;16.57;100.00
76024;BME280;64719;52.124;6.226;2023-08-17T05:15:51;102109.84;;;16.56;100.00
76024;BME280;64719;52.124;6.226;2023-08-17T05:18:17;102106.25;;;16.56;100.00
76024;BME280;64719;52.124;6.226;2023-08-17T05:20:44;102114.63;;;16.61;100.00
76024;BME280;64719;52.124;6.226;2023-08-17T05:23:12;102106.16;;;16.62;100.00
76024;BME280;64719;52.124;6.226;2023-08-17T05:25:38;102114.63;;;16.61;100.00
76024;BME280;64719;52.124;6.226;2023-08-17T05:28:05;102117.13;;;16.62;100.00
76024;BME280;64719;52.124;6.226;2023-08-17T05:30:32;102117.56;;;16.71;100.00
76024;BME280;64719;52.124;6.226;2023-08-17T05:32:59;102111.59;;;16.74;100.00
76024;BME280;64719;52.124;6.226;2023-08-17T05:35:25;102120.06;;;16.84;100.00
76024;BME280;64719;52.124;6.226;2023-08-17T05:37:52;102123.84;;;16.94;100.00
76024;BME280;64719;52.124;6.226;2023-08-17T05:40:20;102126.09;;;16.97;100.00
76024;BME280;64719;52.124;6.226;2023-08-17T05:42:46;102122.41;;;16.92;100.00
76024;BME280;64719;52.124;6.226;2023-08-17T05:45:13;102116.69;;;16.93;100.00
76024;BME280;64719;52.124;6.226;2023-08-17T05:47:40;102118.59;;;16.93;100.00
76024;BME280;64719;52.124;6.226;2023-08-17T05:50:07;102115.38;;;16.96;100.00
76024;BME280;64719;52.124;6.226;2023-08-17T05:52:34;102126.75;;;17.16;100.00
76024;BME280;64719;52.124;6.226;2023-08-17T05:55:00;102129.34;;;17.22;100.00
76024;BME280;64719;52.124;6.226;2023-08-17T05:57:28;102119.84;;;17.13;100.00
76024;BME280;64719;52.124;6.226;2023-08-17T05:59:55;102121.81;;;17.29;100.00
76024;BME280;64719;52.124;6.226;2023-08-17T06:02:21;102116.19;;;17.36;100.00
76024;BME280;64719;52.124;6.226;2023-08-17T06:04:48;102126.56;;;17.45;100.00
76024;BME280;64719;52.124;6.226;2023-08-17T06:07:15;102127.59;;;17.56;100.00
76024;BME280;64719;52.124;6.226;2023-08-17T06:09:41;102138.63;;;17.61;100.00
76024;BME280;64719;52.124;6.226;2023-08-17T06:12:08;102135.47;;;17.52;100.00
76024;BME280;64719;52.124;6.226;2023-08-17T06:14:36;102139.13;;;17.58;100.00
76024;BME280;64719;52.124;6.226;2023-08-17T06:17:03;102138.88;;;17.87;100.00
76024;BME280;64719;52.124;6.226;2023-08-17T06:19:30;102143.72;;;17.97;100.00
76024;BME280;64719;52.124;6.226;2023-08-17T06:21:56;102148.13;;;18.14;100.00
76024;BME280;64719;52.124;6.226;2023-08-17T06:24:23;102141.97;;;18.41;100.00
76024;BME280;64719;52.124;6.226;2023-08-17T06:26:50;102133.41;;;18.75;100.00
76024;BME280;64719;52.124;6.226;2023-08-17T06:29:16;102134.25;;;18.97;100.00
76024;BME280;64719;52.124;6.226;2023-08-17T06:31:44;102135.13;;;18.81;100.00
76024;BME280;64719;52.124;6.226;2023-08-17T06:34:10;102137.59;;;18.61;100.00
76024;BME280;64719;52.124;6.226;2023-08-17T06:36:38;102139.00;;;18.31;100.00
76024;BME280;64719;52.124;6.226;2023-08-17T06:39:04;102144.25;;;18.32;100.00
76024;BME280;64719;52.124;6.226;2023-08-17T06:41:31;102150.50;;;18.11;100.00
76024;BME280;64719;52.124;6.226;2023-08-17T06:43:58;102144.97;;;18.39;100.00
76024;BME280;64719;52.124;6.226;2023-08-17T06:46:25;102151.59;;;18.27;100.00
76024;BME280;64719;52.124;6.226;2023-08-17T06:48:54;102142.94;;;18.35;100.00
76024;BME280;64719;52.124;6.226;2023-08-17T06:51:21;102153.94;;;18.35;100.00
76024;BME280;64719;52.124;6.226;2023-08-17T06:53:47;102154.44;;;18.32;100.00
76024;BME280;64719;52.124;6.226;2023-08-17T06:56:14;102148.75;;;18.21;100.00
76024;BME280;64719;52.124;6.226;2023-08-17T06:58:40;102150.69;;;18.21;100.00
76024;BME280;64719;52.124;6.226;2023-08-17T07:01:07;102152.94;;;18.24;100.00
76024;BME280;64719;52.124;6.226;2023-08-17T07:03:33;102142.47;;;18.21;100.00
76024;BME280;64719;52.124;6.226;2023-08-17T07:06:01;102150.84;;;18.31;100.00
76024;BME280;64719;52.124;6.226;2023-08-17T07:08:29;102152.72;;;18.42;100.00
76024;BME280;64719;52.124;6.226;2023-08-17T07:10:55;102147.38;;;18.52;100.00
76024;BME280;64719;52.124;6.226;2023-08-17T07:13:22;102141.22;;;18.45;100.00
76024;BME280;64719;52.124;6.226;2023-08-17T07:15:48;102144.41;;;18.75;100.00
76024;BME280;64719;52.124;6.226;2023-08-17T07:18:15;102152.88;;;18.90;100.00
76024;BME280;64719;52.124;6.226;2023-08-17T07:20:42;102153.53;;;18.81;100.00
76024;BME280;64719;52.124;6.226;2023-08-17T07:23:09;102159.94;;;18.86;100.00
76024;BME280;64719;52.124;6.226;2023-08-17T07:25:36;102159.91;;;18.81;100.00
76024;BME280;64719;52.124;6.226;2023-08-17T07:28:03;102159.13;;;18.86;100.00
76024;BME280;64719;52.124;6.226;2023-08-17T07:30:29;102168.66;;;19.00;100.00
76024;BME280;64719;52.124;6.226;2023-08-17T07:32:56;102172.88;;;18.86;100.00
76024;BME280;64719;52.124;6.226;2023-08-17T07:35:23;102172.66;;;18.71;100.00
76024;BME280;64719;52.124;6.226;2023-08-17T07:37:49;102175.22;;;18.39;100.00
76024;BME280;64719;52.124;6.226;2023-08-17T07:40:17;102178.69;;;18.35;100.00
76024;BME280;64719;52.124;6.226;2023-08-17T07:42:45;102183.09;;;18.36;100.00
76024;BME280;64719;52.124;6.226;2023-08-17T07:45:11;102171.22;;;18.47;100.00
76024;BME280;64719;52.124;6.226;2023-08-17T07:47:38;102169.25;;;18.47;100.00
76024;BME280;64719;52.124;6.226;2023-08-17T07:50:06;102161.34;;;18.67;100.00
76024;BME280;64719;52.124;6.226;2023-08-17T07:52:32;102166.03;;;18.88;100.00
76024;BME280;64719;52.124;6.226;2023-08-17T07:54:59;102167.25;;;18.97;100.00
76024;BME280;64719;52.124;6.226;2023-08-17T07:57:27;102173.13;;;18.84;100.00
76024;BME280;64719;52.124;6.226;2023-08-17T07:59:53;102170.13;;;18.86;100.00
76024;BME280;64719;52.124;6.226;2023-08-17T08:02:20;102177.66;;;18.95;100.00
76024;BME280;64719;52.124;6.226;2023-08-17T08:04:46;102168.41;;;18.80;100.00
76024;BME280;64719;52.124;6.226;2023-08-17T08:07:13;102177.66;;;18.74;100.00
76024;BME280;64719;52.124;6.226;2023-08-17T08:09:40;102175.13;;;18.89;100.00
76024;BME280;64719;52.124;6.226;2023-08-17T08:12:07;102179.56;;;18.73;100.00
76024;BME280;64719;52.124;6.226;2023-08-17T08:14:35;102188.06;;;18.72;100.00
76024;BME280;64719;52.124;6.226;2023-08-17T08:17:02;102180.19;;;18.59;100.00
76024;BME280;64719;52.124;6.226;2023-08-17T08:19:28;102186.94;;;18.51;100.00
76024;BME280;64719;52.124;6.226;2023-08-17T08:21:54;102189.25;;;18.59;100.00
76024;BME280;64719;52.124;6.226;2023-08-17T08:24:21;102191.34;;;18.52;100.00
76024;BME280;64719;52.124;6.226;2023-08-17T08:26:47;102189.84;;;18.61;100.00
76024;BME280;64719;52.124;6.226;2023-08-17T08:29:16;102186.84;;;18.63;100.00
76024;BME280;64719;52.124;6.226;2023-08-17T08:31:44;102194.00;;;18.64;100.00
76024;BME280;64719;52.124;6.226;2023-08-17T08:34:10;102195.56;;;18.76;100.00
76024;BME280;64719;52.124;6.226;2023-08-17T08:36:37;102184.53;;;18.93;100.00
76024;BME280;64719;52.124;6.226;2023-08-17T08:39:04;102186.69;;;18.91;100.00
76024;BME280;64719;52.124;6.226;2023-08-17T08:41:31;102173.34;;;18.99;100.00
76024;BME280;64719;52.124;6.226;2023-08-17T08:43:58;102163.41;;;18.98;100.00
76024;BME280;64719;52.124;6.226;2023-08-17T08:46:26;102163.25;;;19.48;100.00
76024;BME280;64719;52.124;6.226;2023-08-17T08:48:57;102160.03;;;19.82;100.00
76024;BME280;64719;52.124;6.226;2023-08-17T08:51:27;102158.16;;;19.88;100.00
76024;BME280;64719;52.124;6.226;2023-08-17T08:54:00;102147.53;;;19.48;100.00
76024;BME280;64719;52.124;6.226;2023-08-17T08:56:30;102156.38;;;19.77;100.00
76024;BME280;64719;52.124;6.226;2023-08-17T08:58:59;102154.28;;;19.89;100.00
76024;BME280;64719;52.124;6.226;2023-08-17T09:01:28;102152.16;;;19.69;100.00
76024;BME280;64719;52.124;6.226;2023-08-17T09:03:58;102163.00;;;19.49;100.00
76024;BME280;64719;52.124;6.226;2023-08-17T09:06:26;102163.44;;;19.68;100.00
76024;BME280;64719;52.124;6.226;2023-08-17T09:08:53;102159.13;;;19.50;100.00
76024;BME280;64719;52.124;6.226;2023-08-17T09:11:20;102159.25;;;19.60;100.00
76024;BME280;64719;52.124;6.226;2023-08-17T09:13:46;102165.31;;;19.36;100.00
76024;BME280;64719;52.124;6.226;2023-08-17T09:16:13;102167.31;;;19.24;100.00
76024;BME280;64719;52.124;6.226;2023-08-17T09:18:40;102169.13;;;19.35;100.00
76024;BME280;64719;52.124;6.226;2023-08-17T09:21:08;102166.25;;;19.25;100.00
76024;BME280;64719;52.124;6.226;2023-08-17T09:23:50;102161.25;;;19.22;100.00
76024;BME280;64719;52.124;6.226;2023-08-17T09:26:19;102170.84;;;19.41;100.00
76024;BME280;64719;52.124;6.226;2023-08-17T09:28:45;102165.75;;;19.49;100.00
76024;BME280;64719;52.124;6.226;2023-08-17T09:31:12;102164.56;;;19.45;100.00
76024;BME280;64719;52.124;6.226;2023-08-17T09:33:40;102165.34;;;19.41;100.00
76024;BME280;64719;52.124;6.226;2023-08-17T09:36:10;102166.63;;;19.33;100.00
76024;BME280;64719;52.124;6.226;2023-08-17T09:38:37;102171.25;;;19.49;100.00
76024;BME280;64719;52.124;6.226;2023-08-17T09:41:04;102163.97;;;19.38;100.00
76024;BME280;64719;52.124;6.226;2023-08-17T09:43:32;102154.31;;;19.19;100.00
76024;BME280;64719;52.124;6.226;2023-08-17T09:45:59;102156.78;;;19.16;100.00
76024;BME280;64719;52.124;6.226;2023-08-17T09:48:27;102156.44;;;19.12;100.00
76024;BME280;64719;52.124;6.226;2023-08-17T09:50:56;102150.69;;;19.14;100.00
76024;BME280;64719;52.124;6.226;2023-08-17T09:53:24;102157.72;;;19.26;100.00
76024;BME280;64719;52.124;6.226;2023-08-17T09:55:53;102153.09;;;19.27;100.00
76024;BME280;64719;52.124;6.226;2023-08-17T09:58:20;102160.94;;;19.40;100.00
76024;BME280;64719;52.124;6.226;2023-08-17T10:00:48;102158.56;;;19.48;100.00
76024;BME280;64719;52.124;6.226;2023-08-17T10:03:16;102157.25;;;19.56;100.00
76024;BME280;64719;52.124;6.226;2023-08-17T10:05:54;102146.50;;;19.81;100.00
76024;BME280;64719;52.124;6.226;2023-08-17T10:08:22;102142.66;;;19.82;100.00
76024;BME280;64719;52.124;6.226;2023-08-17T10:10:51;102143.38;;;19.72;100.00
76024;BME280;64719;52.124;6.226;2023-08-17T10:13:24;102136.06;;;19.56;100.00
76024;BME280;64719;52.124;6.226;2023-08-17T10:15:58;102152.53;;;19.51;100.00
76024;BME280;64719;52.124;6.226;2023-08-17T10:18:32;102150.34;;;19.27;100.00
76024;BME280;64719;52.124;6.226;2023-08-17T10:21:02;102145.72;;;19.32;100.00
76024;BME280;64719;52.124;6.226;2023-08-17T10:23:32;102141.66;;;19.66;100.00
76024;BME280;64719;52.124;6.226;2023-08-17T10:26:01;102133.47;;;19.45;100.00
76024;BME280;64719;52.124;6.226;2023-08-17T10:28:30;102132.22;;;19.57;100.00
76024;BME280;64719;52.124;6.226;2023-08-17T10:30:57;102140.59;;;19.67;100.00
76024;BME280;64719;52.124;6.226;2023-08-17T10:33:24;102134.19;;;19.88;100.00
76024;BME280;64719;52.124;6.226;2023-08-17T10:35:52;102134.00;;;20.00;100.00
76024;BME280;64719;52.124;6.226;2023-08-17T10:38:19;102134.34;;;20.09;100.00
76024;BME280;64719;52.124;6.226;2023-08-17T10:41:10;102133.78;;;19.75;100.00
76024;BME280;64719;52.124;6.226;2023-08-17T10:43:56;102138.03;;;19.61;100.00
76024;BME280;64719;52.124;6.226;2023-08-17T10:46:33;102130.88;;;19.60;100.00
76024;BME280;64719;52.124;6.226;2023-08-17T10:49:03;102139.19;;;19.65;100.00
76024;BME280;64719;52.124;6.226;2023-08-17T10:51:31;102148.72;;;19.52;100.00
76024;BME280;64719;52.124;6.226;2023-08-17T10:53:59;102141.16;;;19.43;100.00
76024;BME280;64719;52.124;6.226;2023-08-17T10:56:29;102137.56;;;19.42;100.00
76024;BME280;64719;52.124;6.226;2023-08-17T10:58:59;102129.09;;;19.75;100.00
76024;BME280;64719;52.124;6.226;2023-08-17T11:01:33;102123.78;;;19.95;100.00
76024;BME280;64719;52.124;6.226;2023-08-17T11:04:11;102118.13;;;20.12;100.00
76024;BME280;64719;52.124;6.226;2023-08-17T11:06:38;102115.56;;;20.37;100.00
76024;BME280;64719;52.124;6.226;2023-08-17T11:09:07;102116.94;;;20.35;100.00
76024;BME280;64719;52.124;6.226;2023-08-17T11:11:35;102112.81;;;20.37;100.00
76024;BME280;64719;52.124;6.226;2023-08-17T11:14:02;102102.34;;;20.86;100.00
76024;BME280;64719;52.124;6.226;2023-08-17T11:16:29;102112.97;;;20.62;100.00
76024;BME280;64719;52.124;6.226;2023-08-17T11:18:55;102110.13;;;20.47;100.00
76024;BME280;64719;52.124;6.226;2023-08-17T11:21:24;102111.28;;;20.56;100.00
76024;BME280;64719;52.124;6.226;2023-08-17T11:23:51;102118.22;;;20.22;100.00
76024;BME280;64719;52.124;6.226;2023-08-17T11:26:18;102116.72;;;20.46;100.00
76024;BME280;64719;52.124;6.226;2023-08-17T11:28:46;102117.34;;;20.53;100.00
76024;BME280;64719;52.124;6.226;2023-08-17T11:31:13;102122.44;;;20.35;100.00
76024;BME280;64719;52.124;6.226;2023-08-17T11:33:40;102117.47;;;20.32;100.00
76024;BME280;64719;52.124;6.226;2023-08-17T11:36:08;102109.88;;;20.49;100.00
76024;BME280;64719;52.124;6.226;2023-08-17T11:38:36;102112.84;;;20.42;100.00
76024;BME280;64719;52.124;6.226;2023-08-17T11:41:03;102116.84;;;20.66;100.00
76024;BME280;64719;52.124;6.226;2023-08-17T11:43:31;102124.41;;;20.81;100.00
76024;BME280;64719;52.124;6.226;2023-08-17T11:46:00;102113.25;;;21.17;100.00
76024;BME280;64719;52.124;6.226;2023-08-17T11:48:27;102119.66;;;20.71;100.00
76024;BME280;64719;52.124;6.226;2023-08-17T11:50:54;102112.63;;;20.95;100.00
76024;BME280;64719;52.124;6.226;2023-08-17T11:53:20;102115.81;;;21.39;100.00
76024;BME280;64719;52.124;6.226;2023-08-17T11:55:47;102114.19;;;21.53;100.00
76024;BME280;64719;52.124;6.226;2023-08-17T11:58:14;102115.53;;;21.30;100.00
76024;BME280;64719;52.124;6.226;2023-08-17T12:00:43;102116.22;;;20.96;100.00
76024;BME280;64719;52.124;6.226;2023-08-17T12:03:15;102122.22;;;20.88;100.00
76024;BME280;64719;52.124;6.226;2023-08-17T12:05:42;102117.53;;;20.88;100.00
76024;BME280;64719;52.124;6.226;2023-08-17T12:08:09;102125.00;;;20.93;100.00
76024;BME280;64719;52.124;6.226;2023-08-17T12:10:37;102114.50;;;20.90;100.00
76024;BME280;64719;52.124;6.226;2023-08-17T12:13:03;102123.16;;;21.03;100.00
76024;BME280;64719;52.124;6.226;2023-08-17T12:15:31;102111.31;;;21.08;100.00
76024;BME280;64719;52.124;6.226;2023-08-17T12:17:59;102114.00;;;20.98;100.00
76024;BME280;64719;52.124;6.226;2023-08-17T12:20:28;102110.16;;;21.04;100.00
76024;BME280;64719;52.124;6.226;2023-08-17T12:22:57;102110.00;;;20.74;100.00
76024;BME280;64719;52.124;6.226;2023-08-17T12:25:23;102116.66;;;20.78;100.00
76024;BME280;64719;52.124;6.226;2023-08-17T12:27:50;102115.66;;;20.52;100.00
76024;BME280;64719;52.124;6.226;2023-08-17T12:30:24;102116.53;;;20.58;100.00
76024;BME280;64719;52.124;6.226;2023-08-17T12:32:51;102118.69;;;20.46;100.00
76024;BME280;64719;52.124;6.226;2023-08-17T12:35:18;102113.75;;;20.53;100.00
76024;BME280;64719;52.124;6.226;2023-08-17T12:37:48;102111.56;;;20.55;100.00
76024;BME280;64719;52.124;6.226;2023-08-17T12:40:14;102118.19;;;20.54;100.00
76024;BME280;64719;52.124;6.226;2023-08-17T12:42:41;102115.97;;;20.56;100.00